Time,TemperatureF,DewpointF,PressureIn,WindDirection,WindDirectionDegrees,WindSpeedMPH,WindSpeedGustMPH,Humidity,HourlyPrecipIn,Conditions,Clouds,dailyrainin,SoftwareType,DateUTC
2013-03-18 00:02:00,43.1,41.8,29.72,North,9,4.0,13.0,95,0.00,,,0.00,Wunderground v.1.15,2013-03-18 05:02:00,
2013-03-18 00:08:00,43.2,41.9,29.72,North,1,10.0,13.0,95,0.00,,,0.00,Wunderground v.1.15,2013-03-18 05:08:00,
2013-03-18 00:13:00,43.2,41.9,29.73,North,7,10.0,11.0,95,0.00,,,0.00,Wunderground v.1.15,2013-03-18 05:13:00,
2013-03-18 00:19:00,43.2,41.9,29.74,NW,304,14.0,14.0,95,0.00,,,0.00,Wunderground v.1.15,2013-03-18 05:19:00,
2013-03-18 00:24:00,43.2,41.9,29.73,North,353,12.0,14.0,95,0.00,,,0.00,Wunderground v.1.15,2013-03-18 05:24:00,
2013-03-18 00:29:00,43.1,41.8,29.71,North,10,10.0,14.0,95,0.00,,,0.00,Wunderground v.1.15,2013-03-18 05:29:00,
2013-03-18 00:35:00,43.0,41.7,29.71,NNE,12,12.0,13.0,95,0.00,,,0.00,Wunderground v.1.15,2013-03-18 05:35:00,
2013-03-18 00:40:00,42.9,41.6,29.72,NNW,347,10.0,11.0,95,0.00,,,0.00,Wunderground v.1.15,2013-03-18 05:40:00,
2013-03-18 00:46:00,42.9,41.6,29.71,North,7,10.0,13.0,95,0.00,,,0.00,Wunderground v.1.15,2013-03-18 05:46:00,
2013-03-18 00:52:00,42.8,41.5,29.72,NNW,348,12.0,14.0,95,0.00,,,0.00,Wunderground v.1.15,2013-03-18 05:52:00,
2013-03-18 00:57:00,42.9,41.6,29.71,North,6,13.0,14.0,95,0.00,,,0.00,Wunderground v.1.15,2013-03-18 05:57:00,
2013-03-18 01:03:00,42.8,41.5,29.72,North,357,13.0,14.0,95,0.00,,,0.00,Wunderground v.1.15,2013-03-18 06:03:00,
2013-03-18 01:09:00,42.7,41.4,29.71,North,1,14.0,14.0,95,0.00,,,0.00,Wunderground v.1.15,2013-03-18 06:09:00,
2013-03-18 01:15:00,42.6,41.3,29.72,NNW,332,13.0,13.0,95,0.00,,,0.01,Wunderground v.1.15,2013-03-18 06:15:00,
2013-03-18 01:21:00,42.5,41.2,29.72,NNW,335,18.0,19.0,95,0.00,,,0.01,Wunderground v.1.15,2013-03-18 06:21:00,
2013-03-18 01:26:00,42.3,41.0,29.72,NNW,338,17.0,21.0,95,0.00,,,0.01,Wunderground v.1.15,2013-03-18 06:26:00,
2013-03-18 01:32:00,42.1,40.8,29.76,NW,305,23.0,23.0,95,0.00,,,0.01,Wunderground v.1.15,2013-03-18 06:32:00,
2013-03-18 01:38:00,41.7,40.1,29.75,NNW,342,23.0,28.0,94,0.27,,,0.04,Wunderground v.1.15,2013-03-18 06:38:00,
2013-03-18 01:44:00,41.3,39.7,29.74,NNW,344,17.0,29.0,94,1.21,,,0.10,Wunderground v.1.15,2013-03-18 06:44:00,
2013-03-18 01:50:00,41.0,39.4,29.73,North,358,23.0,23.0,94,1.80,,,0.22,Wunderground v.1.15,2013-03-18 06:50:00,
2013-03-18 01:56:00,40.7,39.1,29.75,North,9,19.0,23.0,94,0.13,,,0.24,Wunderground v.1.15,2013-03-18 06:56:00,
2013-03-18 02:01:00,40.4,38.8,29.74,NNE,20,16.0,17.0,94,0.23,,,0.27,Wunderground v.1.15,2013-03-18 07:01:00,
2013-03-18 02:06:00,40.2,38.6,29.71,NNE,25,23.0,26.0,94,0.15,,,0.28,Wunderground v.1.15,2013-03-18 07:06:00,
2013-03-18 02:11:00,40.1,38.5,29.72,North,5,19.0,19.0,94,0.07,,,0.28,Wunderground v.1.15,2013-03-18 07:11:00,
2013-03-18 02:16:00,40.0,38.4,29.71,North,8,15.0,19.0,94,0.04,,,0.28,Wunderground v.1.15,2013-03-18 07:16:00,
2013-03-18 02:22:00,39.9,38.3,29.71,North,10,20.0,20.0,94,0.26,,,0.30,Wunderground v.1.15,2013-03-18 07:22:00,
2013-03-18 02:27:00,39.7,38.1,29.73,North,3,15.0,22.0,94,0.14,,,0.31,Wunderground v.1.15,2013-03-18 07:27:00,
2013-03-18 02:32:00,39.6,38.0,29.73,North,355,19.0,20.0,94,0.07,,,0.31,Wunderground v.1.15,2013-03-18 07:32:00,
2013-03-18 02:37:00,39.6,38.0,29.75,North,358,16.0,21.0,94,0.04,,,0.31,Wunderground v.1.15,2013-03-18 07:37:00,
2013-03-18 02:42:00,39.5,37.9,29.72,North,3,14.0,20.0,94,0.00,,,0.31,Wunderground v.1.15,2013-03-18 07:42:00,
2013-03-18 02:47:00,39.4,37.8,29.75,NNW,348,19.0,20.0,94,0.64,,,0.33,Wunderground v.1.15,2013-03-18 07:47:00,
2013-03-18 02:52:00,39.3,37.7,29.71,NNE,13,19.0,24.0,94,0.13,,,0.34,Wunderground v.1.15,2013-03-18 07:52:00,
2013-03-18 02:57:00,39.3,37.7,29.79,NW,312,29.0,33.0,94,0.43,,,0.36,Wunderground v.1.15,2013-03-18 07:57:00,
2013-03-18 03:02:00,39.2,37.6,29.71,NE,34,23.0,27.0,94,0.94,,,0.48,Wunderground v.1.15,2013-03-18 08:02:00,
2013-03-18 03:07:00,39.1,37.5,29.69,ENE,57,29.0,31.0,94,1.18,,,0.53,Wunderground v.1.15,2013-03-18 08:07:00,
2013-03-18 03:12:00,39.3,38.0,29.69,ENE,59,22.0,29.0,95,1.01,,,0.62,Wunderground v.1.15,2013-03-18 08:12:00,
2013-03-18 03:17:00,39.6,38.3,29.68,West,279,27.0,29.0,95,1.40,,,0.69,Wunderground v.1.15,2013-03-18 08:17:00,
2013-03-18 03:22:00,39.8,38.5,29.66,West,279,20.0,33.0,95,1.79,,,0.81,Wunderground v.1.15,2013-03-18 08:22:00,
2013-03-18 03:27:00,40.0,38.7,29.65,East,79,24.0,33.0,95,1.12,,,0.93,Wunderground v.1.15,2013-03-18 08:27:00,
2013-03-18 03:32:00,40.2,38.9,29.67,West,279,12.0,26.0,95,0.24,,,0.97,Wunderground v.1.15,2013-03-18 08:32:00,
2013-03-18 03:37:00,40.5,39.2,29.69,NNW,327,0.0,26.0,95,0.11,,,0.98,Wunderground v.1.15,2013-03-18 08:37:00,
2013-03-18 03:42:00,40.6,39.3,29.70,ESE,116,9.0,10.0,95,0.47,,,0.99,Wunderground v.1.15,2013-03-18 08:42:00,
2013-03-18 03:47:00,40.8,39.5,29.68,West,279,2.0,10.0,95,0.30,,,1.02,Wunderground v.1.15,2013-03-18 08:47:00,
2013-03-18 03:52:00,40.9,39.6,29.68,ENE,71,3.0,5.0,95,0.13,,,1.03,Wunderground v.1.15,2013-03-18 08:52:00,
2013-03-18 03:57:00,41.0,39.7,29.68,West,279,2.0,8.0,95,0.06,,,1.03,Wunderground v.1.15,2013-03-18 08:57:00,
2013-03-18 04:02:00,41.0,39.7,29.68,ENE,73,6.0,7.0,95,0.05,,,1.04,Wunderground v.1.15,2013-03-18 09:02:00,
2013-03-18 04:07:00,41.2,39.9,29.69,ENE,57,4.0,7.0,95,1.69,,,1.08,Wunderground v.1.15,2013-03-18 09:07:00,
2013-03-18 04:12:00,41.3,40.2,29.68,ENE,57,4.0,6.0,96,1.32,,,1.18,Wunderground v.1.15,2013-03-18 09:12:00,
2013-03-18 04:17:00,41.4,40.1,29.68,ENE,57,4.0,6.0,95,0.24,,,1.21,Wunderground v.1.15,2013-03-18 09:17:00,
2013-03-18 04:23:00,41.4,40.1,29.68,West,279,0.0,4.0,95,0.13,,,1.23,Wunderground v.1.15,2013-03-18 09:23:00,
2013-03-18 04:28:00,41.5,40.2,29.67,East,82,3.0,11.0,95,0.20,,,1.24,Wunderground v.1.15,2013-03-18 09:28:00,
2013-03-18 04:33:00,41.6,40.3,29.68,ESE,122,5.0,6.0,95,0.08,,,1.24,Wunderground v.1.15,2013-03-18 09:33:00,
2013-03-18 04:38:00,41.8,40.7,29.67,East,79,1.0,12.0,96,0.05,,,1.24,Wunderground v.1.15,2013-03-18 09:38:00,
2013-03-18 04:43:00,41.9,40.8,29.68,West,279,2.0,7.0,96,0.00,,,1.24,Wunderground v.1.15,2013-03-18 09:43:00,
2013-03-18 04:48:00,42.0,40.9,29.68,West,279,3.0,7.0,96,0.00,,,1.24,Wunderground v.1.15,2013-03-18 09:48:00,
2013-03-18 04:53:00,42.1,41.0,29.67,East,100,4.0,9.0,96,0.51,,,1.27,Wunderground v.1.15,2013-03-18 09:53:00,
2013-03-18 04:58:00,42.2,40.9,29.67,West,279,2.0,9.0,95,0.11,,,1.27,Wunderground v.1.15,2013-03-18 09:58:00,
2013-03-18 05:03:00,42.2,40.9,29.67,East,88,1.0,9.0,95,0.11,,,1.28,Wunderground v.1.15,2013-03-18 10:03:00,
2013-03-18 05:08:00,42.2,40.9,29.66,East,84,2.0,9.0,95,0.06,,,1.28,Wunderground v.1.15,2013-03-18 10:08:00,
2013-03-18 05:13:00,42.3,41.0,29.67,ESE,109,7.0,12.0,95,0.04,,,1.28,Wunderground v.1.15,2013-03-18 10:13:00,
2013-03-18 05:18:00,42.3,41.2,29.66,ESE,114,11.0,12.0,96,0.00,,,1.28,Wunderground v.1.15,2013-03-18 10:18:00,
2013-03-18 05:23:00,42.3,41.2,29.66,ESE,109,10.0,12.0,96,0.00,,,1.28,Wunderground v.1.15,2013-03-18 10:23:00,
2013-03-18 05:28:00,42.3,41.2,29.66,ESE,109,12.0,13.0,96,0.00,,,1.28,Wunderground v.1.15,2013-03-18 10:28:00,
2013-03-18 05:33:00,42.4,41.3,29.65,ESE,113,15.0,15.0,96,0.00,,,1.28,Wunderground v.1.15,2013-03-18 10:33:00,
2013-03-18 05:38:00,42.4,41.3,29.66,ESE,110,14.0,16.0,96,0.00,,,1.28,Wunderground v.1.15,2013-03-18 10:38:00,
2013-03-18 05:43:00,42.5,41.4,29.66,West,279,16.0,16.0,96,0.00,,,1.28,Wunderground v.1.15,2013-03-18 10:43:00,
2013-03-18 05:48:00,42.6,41.5,29.65,ESE,113,11.0,20.0,96,0.00,,,1.28,Wunderground v.1.15,2013-03-18 10:48:00,
2013-03-18 05:53:00,42.7,41.6,29.65,ESE,111,12.0,17.0,96,0.00,,,1.28,Wunderground v.1.15,2013-03-18 10:53:00,
2013-03-18 05:58:00,42.8,41.7,29.65,ESE,115,15.0,17.0,96,0.00,,,1.28,Wunderground v.1.15,2013-03-18 10:58:00,
2013-03-18 06:03:00,42.9,41.8,29.66,ESE,119,19.0,22.0,96,0.00,,,1.28,Wunderground v.1.15,2013-03-18 11:03:00,
2013-03-18 06:08:00,43.1,42.0,29.65,ESE,119,16.0,22.0,96,0.00,,,1.28,Wunderground v.1.15,2013-03-18 11:08:00,
2013-03-18 06:13:00,43.2,42.1,29.66,ESE,119,14.0,18.0,96,0.00,,,1.28,Wunderground v.1.15,2013-03-18 11:13:00,
2013-03-18 06:18:00,43.3,42.2,29.65,ESE,122,15.0,20.0,96,0.00,,,1.28,Wunderground v.1.15,2013-03-18 11:18:00,
2013-03-18 06:23:00,43.5,42.4,29.65,ESE,117,13.0,18.0,96,0.00,,,1.28,Wunderground v.1.15,2013-03-18 11:23:00,
2013-03-18 06:28:00,43.7,42.6,29.66,West,279,15.0,18.0,96,0.00,,,1.28,Wunderground v.1.15,2013-03-18 11:28:00,
2013-03-18 06:33:00,43.8,42.7,29.66,ESE,120,17.0,18.0,96,0.00,,,1.28,Wunderground v.1.15,2013-03-18 11:33:00,
2013-03-18 06:38:00,43.9,42.8,29.65,ESE,122,16.0,18.0,96,0.00,,,1.28,Wunderground v.1.15,2013-03-18 11:38:00,
2013-03-18 06:43:00,43.9,42.8,29.66,SE,130,11.0,15.0,96,0.00,,,1.28,Wunderground v.1.15,2013-03-18 11:43:00,
2013-03-18 06:48:00,44.1,43.0,29.66,SSE,158,7.0,15.0,96,0.00,,,1.28,Wunderground v.1.15,2013-03-18 11:48:00,
2013-03-18 06:53:00,44.2,43.1,29.67,SW,233,5.0,14.0,96,0.00,,,1.28,Wunderground v.1.15,2013-03-18 11:53:00,
2013-03-18 06:58:00,44.3,43.2,29.68,WSW,237,10.0,14.0,96,0.00,,,1.28,Wunderground v.1.15,2013-03-18 11:58:00,
2013-03-18 07:04:00,44.4,43.3,29.67,SW,226,15.0,16.0,96,0.00,,,1.28,Wunderground v.1.15,2013-03-18 12:04:00,
2013-03-18 07:09:00,44.7,43.6,29.67,South,177,10.0,25.0,96,0.00,,,1.28,Wunderground v.1.15,2013-03-18 12:09:00,
2013-03-18 07:14:00,45.1,44.0,29.68,South,176,15.0,20.0,96,0.00,,,1.28,Wunderground v.1.15,2013-03-18 12:14:00,
2013-03-18 07:19:00,45.2,44.1,29.69,West,279,11.0,20.0,96,0.00,,,1.28,Wunderground v.1.15,2013-03-18 12:19:00,
2013-03-18 07:24:00,45.2,44.1,29.69,WSW,257,18.0,18.0,96,0.00,,,1.28,Wunderground v.1.15,2013-03-18 12:24:00,
2013-03-18 07:29:00,45.0,43.9,29.69,WSW,256,11.0,20.0,96,0.00,,,1.28,Wunderground v.1.15,2013-03-18 12:29:00,
2013-03-18 07:34:00,44.8,43.7,29.69,West,279,14.0,16.0,96,0.00,,,1.28,Wunderground v.1.15,2013-03-18 12:34:00,
2013-03-18 07:39:00,44.7,43.6,29.69,SW,228,11.0,16.0,96,0.00,,,1.28,Wunderground v.1.15,2013-03-18 12:39:00,
2013-03-18 07:44:00,44.6,43.5,29.69,SW,225,12.0,13.0,96,0.00,,,1.28,Wunderground v.1.15,2013-03-18 12:44:00,
2013-03-18 07:49:00,44.6,43.5,29.69,West,279,13.0,14.0,96,0.00,,,1.28,Wunderground v.1.15,2013-03-18 12:49:00,
2013-03-18 07:54:00,44.6,43.5,29.69,SW,235,10.0,13.0,96,0.00,,,1.28,Wunderground v.1.15,2013-03-18 12:54:00,
2013-03-18 07:59:00,44.6,43.5,29.70,West,279,9.0,13.0,96,0.00,,,1.28,Wunderground v.1.15,2013-03-18 12:59:00,
2013-03-18 08:04:00,44.6,43.5,29.70,SSW,207,10.0,13.0,96,0.00,,,1.28,Wunderground v.1.15,2013-03-18 13:04:00,
2013-03-18 08:09:00,44.6,43.5,29.69,SSW,200,9.0,13.0,96,0.00,,,1.28,Wunderground v.1.15,2013-03-18 13:09:00,
2013-03-18 08:14:00,44.6,43.5,29.70,SW,219,5.0,13.0,96,0.00,,,1.28,Wunderground v.1.15,2013-03-18 13:14:00,
2013-03-18 08:19:00,44.7,43.6,29.69,South,180,6.0,13.0,96,0.00,,,1.28,Wunderground v.1.15,2013-03-18 13:19:00,
2013-03-18 08:24:00,44.8,43.7,29.70,SSW,206,9.0,10.0,96,0.00,,,1.28,Wunderground v.1.15,2013-03-18 13:24:00,
2013-03-18 08:29:00,44.9,43.8,29.69,SSW,204,13.0,14.0,96,0.00,,,1.28,Wunderground v.1.15,2013-03-18 13:29:00,
2013-03-18 08:34:00,45.0,43.9,29.71,SSW,198,10.0,14.0,96,0.00,,,1.28,Wunderground v.1.15,2013-03-18 13:34:00,
2013-03-18 08:39:00,45.1,44.0,29.72,South,181,12.0,16.0,96,0.00,,,1.28,Wunderground v.1.15,2013-03-18 13:39:00,
2013-03-18 08:44:00,45.2,44.1,29.72,SSE,155,11.0,16.0,96,0.00,,,1.28,Wunderground v.1.15,2013-03-18 13:44:00,
2013-03-18 08:49:00,45.3,44.2,29.72,West,279,13.0,16.0,96,0.00,,,1.28,Wunderground v.1.15,2013-03-18 13:49:00,
2013-03-18 08:54:00,45.4,44.3,29.72,West,279,13.0,16.0,96,0.00,,,1.28,Wunderground v.1.15,2013-03-18 13:54:00,
2013-03-18 08:59:00,45.5,44.4,29.72,West,279,14.0,17.0,96,0.00,,,1.28,Wunderground v.1.15,2013-03-18 13:59:00,
2013-03-18 09:04:00,45.6,44.5,29.72,South,181,10.0,16.0,96,0.00,,,1.28,Wunderground v.1.15,2013-03-18 14:04:00,
2013-03-18 09:09:00,45.6,44.5,29.72,West,279,13.0,16.0,96,0.00,,,1.28,Wunderground v.1.15,2013-03-18 14:09:00,
2013-03-18 09:14:00,45.8,44.7,29.72,South,184,10.0,13.0,96,0.00,,,1.28,Wunderground v.1.15,2013-03-18 14:14:00,
2013-03-18 09:19:00,46.0,44.9,29.72,SSW,210,4.0,13.0,96,0.00,,,1.28,Wunderground v.1.15,2013-03-18 14:19:00,
2013-03-18 09:24:00,46.2,45.1,29.72,SSW,203,6.0,10.0,96,0.00,,,1.28,Wunderground v.1.15,2013-03-18 14:24:00,
2013-03-18 09:29:00,46.4,45.3,29.74,SW,221,12.0,15.0,96,0.00,,,1.28,Wunderground v.1.15,2013-03-18 14:29:00,
2013-03-18 09:34:00,46.5,45.4,29.73,SSW,209,12.0,14.0,96,0.00,,,1.28,Wunderground v.1.15,2013-03-18 14:34:00,
2013-03-18 09:39:00,46.6,45.5,29.74,SW,221,11.0,17.0,96,0.00,,,1.28,Wunderground v.1.15,2013-03-18 14:39:00,
2013-03-18 09:44:00,46.6,45.5,29.75,SSW,197,15.0,18.0,96,0.00,,,1.28,Wunderground v.1.15,2013-03-18 14:44:00,
2013-03-18 09:49:00,46.7,45.6,29.75,West,279,10.0,18.0,96,0.00,,,1.28,Wunderground v.1.15,2013-03-18 14:49:00,
2013-03-18 09:54:00,46.7,45.6,29.75,SSW,210,11.0,15.0,96,0.00,,,1.28,Wunderground v.1.15,2013-03-18 14:54:00,
2013-03-18 09:59:00,46.7,45.6,29.75,West,279,11.0,15.0,96,0.00,,,1.28,Wunderground v.1.15,2013-03-18 14:59:00,
2013-03-18 10:04:00,46.6,45.2,29.75,SSW,200,10.0,17.0,95,0.00,,,1.28,Wunderground v.1.15,2013-03-18 15:04:00,
2013-03-18 10:09:00,46.7,45.3,29.77,SW,223,12.0,17.0,95,0.00,,,1.28,Wunderground v.1.15,2013-03-18 15:09:00,
2013-03-18 10:14:00,46.7,45.3,29.76,West,279,11.0,14.0,95,0.00,,,1.28,Wunderground v.1.15,2013-03-18 15:14:00,
2013-03-18 10:19:00,46.8,45.4,29.76,SW,225,5.0,14.0,95,0.00,,,1.28,Wunderground v.1.15,2013-03-18 15:19:00,
2013-03-18 10:25:00,46.9,45.5,29.76,SSW,198,7.0,10.0,95,0.00,,,1.28,Wunderground v.1.15,2013-03-18 15:25:00,
2013-03-18 10:30:00,47.1,45.7,29.75,West,279,10.0,10.0,95,0.00,,,1.28,Wunderground v.1.15,2013-03-18 15:30:00,
2013-03-18 10:35:00,47.2,45.8,29.76,South,180,8.0,12.0,95,0.00,,,1.28,Wunderground v.1.15,2013-03-18 15:35:00,
2013-03-18 10:40:00,47.3,45.9,29.77,SW,218,10.0,10.0,95,0.00,,,1.28,Wunderground v.1.15,2013-03-18 15:40:00,
2013-03-18 10:45:00,47.4,46.0,29.76,West,279,9.0,12.0,95,0.00,,,1.28,Wunderground v.1.15,2013-03-18 15:45:00,
2013-03-18 10:50:00,47.5,45.9,29.75,SW,215,12.0,12.0,94,0.00,,,1.28,Wunderground v.1.15,2013-03-18 15:50:00,
2013-03-18 10:55:00,47.6,46.0,29.75,West,279,8.0,13.0,94,0.00,,,1.28,Wunderground v.1.15,2013-03-18 15:55:00,
2013-03-18 11:00:00,47.8,46.2,29.75,SW,219,10.0,10.0,94,0.00,,,1.28,Wunderground v.1.15,2013-03-18 16:00:00,
2013-03-18 11:05:00,47.7,45.5,29.75,SW,236,11.0,15.0,92,0.00,,,1.28,Wunderground v.1.15,2013-03-18 16:05:00,
2013-03-18 11:10:00,47.7,45.2,29.77,SW,233,14.0,14.0,91,0.00,,,1.28,Wunderground v.1.15,2013-03-18 16:10:00,
2013-03-18 11:15:00,47.6,44.8,29.76,SW,225,12.0,16.0,90,0.00,,,1.28,Wunderground v.1.15,2013-03-18 16:15:00,
2013-03-18 11:20:00,47.6,44.8,29.77,SW,236,13.0,13.0,90,0.00,,,1.28,Wunderground v.1.15,2013-03-18 16:20:00,
2013-03-18 11:25:00,47.6,44.8,29.77,SW,228,13.0,16.0,90,0.00,,,1.28,Wunderground v.1.15,2013-03-18 16:25:00,
2013-03-18 11:30:00,47.6,44.8,29.79,West,279,14.0,14.0,90,0.00,,,1.28,Wunderground v.1.15,2013-03-18 16:30:00,
2013-03-18 11:35:00,47.6,44.8,29.77,SW,228,13.0,16.0,90,0.00,,,1.28,Wunderground v.1.15,2013-03-18 16:35:00,
2013-03-18 11:40:00,47.5,44.7,29.77,WSW,248,14.0,14.0,90,0.00,,,1.28,Wunderground v.1.15,2013-03-18 16:40:00,
2013-03-18 11:45:00,47.6,44.8,29.77,West,259,13.0,17.0,90,0.00,,,1.28,Wunderground v.1.15,2013-03-18 16:45:00,
2013-03-18 11:50:00,47.7,44.9,29.79,SW,233,17.0,17.0,90,0.00,,,1.28,Wunderground v.1.15,2013-03-18 16:50:00,
2013-03-18 11:55:00,47.7,44.6,29.80,SW,235,19.0,21.0,89,0.00,,,1.28,Wunderground v.1.15,2013-03-18 16:55:00,
2013-03-18 12:00:00,47.6,44.2,29.79,SW,227,17.0,21.0,88,0.00,,,1.28,Wunderground v.1.15,2013-03-18 17:00:00,
2013-03-18 12:05:00,47.7,44.9,29.78,West,279,15.0,21.0,90,0.00,,,1.28,Wunderground v.1.15,2013-03-18 17:05:00,
2013-03-18 12:10:00,47.7,44.6,29.79,WSW,240,16.0,16.0,89,0.00,,,1.28,Wunderground v.1.15,2013-03-18 17:10:00,
2013-03-18 12:15:00,47.7,44.6,29.80,WSW,238,9.0,19.0,89,0.00,,,1.28,Wunderground v.1.15,2013-03-18 17:15:00,
2013-03-18 12:20:00,47.7,44.6,29.79,WSW,244,15.0,16.0,89,0.00,,,1.28,Wunderground v.1.15,2013-03-18 17:20:00,
2013-03-18 12:25:00,47.8,44.4,29.78,SW,236,15.0,20.0,88,0.00,,,1.28,Wunderground v.1.15,2013-03-18 17:25:00,
2013-03-18 12:30:00,48.0,45.2,29.78,West,279,13.0,15.0,90,0.00,,,1.28,Wunderground v.1.15,2013-03-18 17:30:00,
2013-03-18 12:35:00,48.4,45.0,29.78,West,279,16.0,19.0,88,0.00,,,1.28,Wunderground v.1.15,2013-03-18 17:35:00,
2013-03-18 12:40:00,48.5,44.8,29.79,SW,228,13.0,15.0,87,0.00,,,1.28,Wunderground v.1.15,2013-03-18 17:40:00,
2013-03-18 12:45:00,48.5,45.1,29.78,SW,230,13.0,16.0,88,0.00,,,1.28,Wunderground v.1.15,2013-03-18 17:45:00,
2013-03-18 12:50:00,48.6,44.9,29.78,West,279,8.0,15.0,87,0.00,,,1.28,Wunderground v.1.15,2013-03-18 17:50:00,
2013-03-18 12:55:00,48.7,45.3,29.78,SW,236,12.0,15.0,88,0.00,,,1.28,Wunderground v.1.15,2013-03-18 17:55:00,
2013-03-18 13:00:00,48.7,45.0,29.79,WSW,240,11.0,13.0,87,0.00,,,1.28,Wunderground v.1.15,2013-03-18 18:00:00,
2013-03-18 13:05:00,48.7,45.3,29.77,SW,223,9.0,14.0,88,0.00,,,1.28,Wunderground v.1.15,2013-03-18 18:05:00,
2013-03-18 13:10:00,48.8,45.4,29.77,West,279,12.0,13.0,88,0.00,,,1.28,Wunderground v.1.15,2013-03-18 18:10:00,
2013-03-18 13:15:00,49.1,45.4,29.76,SW,221,11.0,14.0,87,0.00,,,1.28,Wunderground v.1.15,2013-03-18 18:15:00,
2013-03-18 13:20:00,49.3,45.3,29.77,WSW,255,10.0,10.0,86,0.00,,,1.28,Wunderground v.1.15,2013-03-18 18:20:00,
2013-03-18 13:25:00,49.5,45.2,29.75,WSW,244,12.0,15.0,85,0.00,,,1.28,Wunderground v.1.15,2013-03-18 18:25:00,
2013-03-18 13:30:00,49.6,45.3,29.76,West,279,13.0,15.0,85,0.00,,,1.28,Wunderground v.1.15,2013-03-18 18:30:00,
2013-03-18 13:35:00,49.6,45.3,29.76,WSW,240,7.0,15.0,85,0.00,,,1.28,Wunderground v.1.15,2013-03-18 18:35:00,
2013-03-18 13:40:00,49.6,45.0,29.76,SW,228,7.0,11.0,84,0.00,,,1.28,Wunderground v.1.15,2013-03-18 18:40:00,
2013-03-18 13:45:00,49.5,44.9,29.75,SW,236,3.0,13.0,84,0.00,,,1.28,Wunderground v.1.15,2013-03-18 18:45:00,
2013-03-18 13:50:00,49.7,45.4,29.75,SSW,206,7.0,10.0,85,0.00,,,1.28,Wunderground v.1.15,2013-03-18 18:50:00,
2013-03-18 13:55:00,49.8,45.5,29.75,SW,221,5.0,11.0,85,0.00,,,1.28,Wunderground v.1.15,2013-03-18 18:55:00,
2013-03-18 14:00:00,49.9,45.3,29.75,SW,223,9.0,10.0,84,0.00,,,1.28,Wunderground v.1.15,2013-03-18 19:00:00,
2013-03-18 14:05:00,49.9,45.3,29.75,SW,223,11.0,14.0,84,0.00,,,1.28,Wunderground v.1.15,2013-03-18 19:05:00,
2013-03-18 14:10:00,49.9,44.9,29.77,SW,230,12.0,16.0,83,0.00,,,1.28,Wunderground v.1.15,2013-03-18 19:10:00,
2013-03-18 14:15:00,49.8,44.8,29.75,SW,235,14.0,16.0,83,0.00,,,1.28,Wunderground v.1.15,2013-03-18 19:15:00,
2013-03-18 14:20:00,49.6,44.6,29.75,West,263,12.0,13.0,83,0.00,,,1.28,Wunderground v.1.15,2013-03-18 19:20:00,
2013-03-18 14:25:00,49.5,44.9,29.77,WSW,254,16.0,17.0,84,0.00,,,1.28,Wunderground v.1.15,2013-03-18 19:25:00,
2013-03-18 14:30:00,49.5,44.9,29.76,West,259,14.0,17.0,84,0.00,,,1.28,Wunderground v.1.15,2013-03-18 19:30:00,
2013-03-18 14:35:00,49.4,44.5,29.75,West,279,14.0,18.0,83,0.00,,,1.28,Wunderground v.1.15,2013-03-18 19:35:00,
2013-03-18 14:41:00,49.4,44.5,29.75,SW,231,14.0,15.0,83,0.00,,,1.28,Wunderground v.1.15,2013-03-18 19:41:00,
2013-03-18 14:45:00,49.4,45.1,29.77,West,274,8.0,15.0,85,0.00,,,1.28,Wunderground v.1.15,2013-03-18 19:45:00,
2013-03-18 14:51:00,49.4,44.8,29.76,WSW,244,12.0,12.0,84,0.00,,,1.28,Wunderground v.1.15,2013-03-18 19:51:00,
2013-03-18 14:56:00,49.3,44.7,29.76,SW,232,14.0,17.0,84,0.00,,,1.28,Wunderground v.1.15,2013-03-18 19:56:00,
2013-03-18 15:01:00,49.3,44.7,29.77,WSW,238,15.0,16.0,84,0.00,,,1.28,Wunderground v.1.15,2013-03-18 20:01:00,
2013-03-18 15:06:00,49.2,44.6,29.79,West,269,12.0,16.0,84,0.00,,,1.28,Wunderground v.1.15,2013-03-18 20:06:00,
2013-03-18 15:11:00,49.2,44.6,29.77,West,261,12.0,15.0,84,0.00,,,1.28,Wunderground v.1.15,2013-03-18 20:11:00,
2013-03-18 15:16:00,49.3,44.7,29.78,West,274,11.0,15.0,84,0.00,,,1.28,Wunderground v.1.15,2013-03-18 20:16:00,
2013-03-18 15:22:00,49.4,44.8,29.78,West,266,14.0,14.0,84,0.00,,,1.28,Wunderground v.1.15,2013-03-18 20:22:00,
2013-03-18 15:27:00,49.4,44.8,29.78,West,270,11.0,16.0,84,0.00,,,1.28,Wunderground v.1.15,2013-03-18 20:27:00,
2013-03-18 15:32:00,49.5,44.9,29.80,SW,228,13.0,13.0,84,0.00,,,1.28,Wunderground v.1.15,2013-03-18 20:32:00,
2013-03-18 15:37:00,49.6,45.0,29.79,SW,223,12.0,14.0,84,0.00,,,1.28,Wunderground v.1.15,2013-03-18 20:37:00,
2013-03-18 15:42:00,49.6,45.0,29.80,WSW,255,7.0,12.0,84,0.00,,,1.28,Wunderground v.1.15,2013-03-18 20:42:00,
2013-03-18 15:47:00,49.7,45.1,29.79,WNW,292,14.0,14.0,84,0.00,,,1.28,Wunderground v.1.15,2013-03-18 20:47:00,
2013-03-18 15:52:00,49.7,44.4,29.79,WNW,284,19.0,19.0,82,0.00,,,1.28,Wunderground v.1.15,2013-03-18 20:52:00,
2013-03-18 15:57:00,49.6,44.0,29.79,WNW,288,19.0,23.0,81,0.00,,,1.28,Wunderground v.1.15,2013-03-18 20:57:00,
2013-03-18 16:02:00,49.5,43.9,29.80,WNW,288,19.0,22.0,81,0.00,,,1.28,Wunderground v.1.15,2013-03-18 21:02:00,
2013-03-18 16:07:00,49.3,43.1,29.82,WNW,294,18.0,23.0,79,0.00,,,1.28,Wunderground v.1.15,2013-03-18 21:07:00,
2013-03-18 16:12:00,49.1,42.9,29.80,West,279,23.0,25.0,79,0.00,,,1.28,Wunderground v.1.15,2013-03-18 21:12:00,
2013-03-18 16:17:00,48.8,42.6,29.80,WNW,290,21.0,25.0,79,0.00,,,1.28,Wunderground v.1.15,2013-03-18 21:17:00,
2013-03-18 16:22:00,48.6,42.4,29.82,West,279,20.0,21.0,79,0.00,,,1.28,Wunderground v.1.15,2013-03-18 21:22:00,
2013-03-18 16:27:00,48.5,42.3,29.81,West,279,19.0,24.0,79,0.00,,,1.28,Wunderground v.1.15,2013-03-18 21:27:00,
2013-03-18 16:32:00,48.4,42.5,29.81,West,274,11.0,18.0,80,0.00,,,1.28,Wunderground v.1.15,2013-03-18 21:32:00,
2013-03-18 16:37:00,48.4,42.2,29.81,WNW,294,10.0,21.0,79,0.00,,,1.28,Wunderground v.1.15,2013-03-18 21:37:00,
2013-03-18 16:42:00,48.4,42.2,29.82,WNW,294,16.0,21.0,79,0.00,,,1.28,Wunderground v.1.15,2013-03-18 21:42:00,
2013-03-18 16:48:00,48.7,42.1,29.82,West,279,14.0,21.0,78,0.00,,,1.28,Wunderground v.1.15,2013-03-18 21:48:00,
2013-03-18 16:53:00,49.1,41.9,29.83,West,270,18.0,18.0,76,0.00,,,1.28,Wunderground v.1.15,2013-03-18 21:53:00,
2013-03-18 16:58:00,49.6,42.7,29.81,West,279,5.0,18.0,77,0.00,,,1.28,Wunderground v.1.15,2013-03-18 21:58:00,
2013-03-18 17:03:00,50.4,43.1,29.82,WNW,284,14.0,14.0,76,0.00,,,1.28,Wunderground v.1.15,2013-03-18 22:03:00,
2013-03-18 17:08:00,51.1,43.1,29.82,WNW,291,8.0,15.0,74,0.00,,,1.28,Wunderground v.1.15,2013-03-18 22:08:00,
2013-03-18 17:13:00,51.5,43.5,29.84,West,279,12.0,17.0,74,0.00,,,1.28,Wunderground v.1.15,2013-03-18 22:13:00,
2013-03-18 17:18:00,51.7,43.0,29.83,West,279,13.0,18.0,72,0.00,,,1.28,Wunderground v.1.15,2013-03-18 22:18:00,
2013-03-18 17:23:00,51.1,42.4,29.83,WSW,252,12.0,15.0,72,0.00,,,1.28,Wunderground v.1.15,2013-03-18 22:23:00,
2013-03-18 17:28:00,50.6,42.6,29.83,WNW,294,14.0,16.0,74,0.00,,,1.28,Wunderground v.1.15,2013-03-18 22:28:00,
2013-03-18 17:33:00,50.3,42.3,29.83,WNW,288,14.0,16.0,74,0.00,,,1.28,Wunderground v.1.15,2013-03-18 22:33:00,
2013-03-18 17:38:00,50.1,41.8,29.85,WNW,290,13.0,16.0,73,0.00,,,1.28,Wunderground v.1.15,2013-03-18 22:38:00,
2013-03-18 17:43:00,49.9,41.6,29.84,WNW,288,11.0,18.0,73,0.00,,,1.28,Wunderground v.1.15,2013-03-18 22:43:00,
2013-03-18 17:48:00,50.0,41.7,29.85,West,279,8.0,18.0,73,0.00,,,1.28,Wunderground v.1.15,2013-03-18 22:48:00,
2013-03-18 17:53:00,50.4,42.1,29.84,West,279,12.0,14.0,73,0.00,,,1.28,Wunderground v.1.15,2013-03-18 22:53:00,
2013-03-18 17:58:00,50.4,41.7,29.84,WSW,241,13.0,16.0,72,0.00,,,1.28,Wunderground v.1.15,2013-03-18 22:58:00,
2013-03-18 18:03:00,50.3,41.6,29.84,WSW,250,12.0,15.0,72,0.00,,,1.28,Wunderground v.1.15,2013-03-18 23:03:00,
2013-03-18 18:08:00,50.1,41.4,29.85,West,274,12.0,15.0,72,0.00,,,1.28,Wunderground v.1.15,2013-03-18 23:08:00,
2013-03-18 18:13:00,49.8,40.8,29.85,WNW,284,10.0,15.0,71,0.00,,,1.28,Wunderground v.1.15,2013-03-18 23:13:00,
2013-03-18 18:18:00,49.9,41.2,29.87,WNW,288,14.0,16.0,72,0.00,,,1.28,Wunderground v.1.15,2013-03-18 23:18:00,
2013-03-18 18:23:00,50.0,41.0,29.86,West,279,11.0,15.0,71,0.00,,,1.28,Wunderground v.1.15,2013-03-18 23:23:00,
2013-03-18 18:28:00,50.0,40.6,29.87,West,274,10.0,15.0,70,0.00,,,1.28,Wunderground v.1.15,2013-03-18 23:28:00,
2013-03-18 18:33:00,49.9,40.5,29.86,WNW,292,12.0,14.0,70,0.00,,,1.28,Wunderground v.1.15,2013-03-18 23:33:00,
2013-03-18 18:38:00,49.7,40.7,29.86,West,279,9.0,14.0,71,0.00,,,1.28,Wunderground v.1.15,2013-03-18 23:38:00,
2013-03-18 18:43:00,49.4,40.7,29.87,West,261,10.0,13.0,72,0.00,,,1.28,Wunderground v.1.15,2013-03-18 23:43:00,
2013-03-18 18:48:00,49.0,40.4,29.86,West,279,8.0,13.0,72,0.00,,,1.28,Wunderground v.1.15,2013-03-18 23:48:00,
2013-03-18 18:53:00,48.6,40.0,29.87,West,279,7.0,11.0,72,0.00,,,1.28,Wunderground v.1.15,2013-03-18 23:53:00,
2013-03-18 18:58:00,48.3,40.4,29.87,West,279,7.0,11.0,74,0.00,,,1.28,Wunderground v.1.15,2013-03-18 23:58:00,
2013-03-18 19:03:00,47.9,40.0,29.89,West,269,8.0,10.0,74,0.00,,,1.28,Wunderground v.1.15,2013-03-19 00:03:00,
2013-03-18 19:08:00,47.6,40.1,29.88,West,279,8.0,10.0,75,0.00,,,1.28,Wunderground v.1.15,2013-03-19 00:08:00,
2013-03-18 19:13:00,47.2,39.7,29.88,West,279,6.0,9.0,75,0.00,,,1.28,Wunderground v.1.15,2013-03-19 00:13:00,
2013-03-18 19:18:00,47.0,39.8,29.89,West,269,5.0,9.0,76,0.00,,,1.28,Wunderground v.1.15,2013-03-19 00:18:00,
2013-03-18 19:23:00,46.7,39.5,29.90,West,260,6.0,7.0,76,0.00,,,1.28,Wunderground v.1.15,2013-03-19 00:23:00,
2013-03-18 19:28:00,46.3,39.8,29.89,West,263,6.0,9.0,78,0.00,,,1.28,Wunderground v.1.15,2013-03-19 00:28:00,
2013-03-18 19:33:00,45.9,39.8,29.90,West,274,9.0,10.0,79,0.00,,,1.28,Wunderground v.1.15,2013-03-19 00:33:00,
2013-03-18 19:38:00,45.5,39.7,29.91,West,279,7.0,10.0,80,0.00,,,1.28,Wunderground v.1.15,2013-03-19 00:38:00,
2013-03-18 19:43:00,45.1,39.9,29.90,West,279,7.0,9.0,82,0.00,,,1.28,Wunderground v.1.15,2013-03-19 00:43:00,
2013-03-18 19:48:00,44.7,39.5,29.90,West,274,9.0,9.0,82,0.00,,,1.28,Wunderground v.1.15,2013-03-19 00:48:00,
2013-03-18 19:53:00,44.3,39.5,29.90,West,274,9.0,9.0,83,0.00,,,1.28,Wunderground v.1.15,2013-03-19 00:53:00,
2013-03-18 19:58:00,44.0,39.5,29.92,West,279,7.0,9.0,84,0.00,,,1.28,Wunderground v.1.15,2013-03-19 00:58:00,
2013-03-18 20:03:00,43.5,39.0,29.91,West,274,6.0,8.0,84,0.00,,,1.28,Wunderground v.1.15,2013-03-19 01:03:00,
2013-03-18 20:09:00,43.0,38.5,29.91,WNW,288,6.0,8.0,84,0.00,,,1.28,Wunderground v.1.15,2013-03-19 01:09:00,
2013-03-18 20:14:00,42.6,38.4,29.91,WNW,288,7.0,7.0,85,0.00,,,1.28,Wunderground v.1.15,2013-03-19 01:14:00,
2013-03-18 20:19:00,42.2,38.3,29.92,WNW,288,7.0,9.0,86,0.00,,,1.28,Wunderground v.1.15,2013-03-19 01:19:00,
2013-03-18 20:24:00,41.9,38.0,29.91,WNW,294,8.0,10.0,86,0.00,,,1.28,Wunderground v.1.15,2013-03-19 01:24:00,
2013-03-18 20:29:00,41.5,37.9,29.91,WNW,301,8.0,10.0,87,0.00,,,1.28,Wunderground v.1.15,2013-03-19 01:29:00,
2013-03-18 20:34:00,41.2,37.6,29.91,WNW,300,9.0,10.0,87,0.00,,,1.28,Wunderground v.1.15,2013-03-19 01:34:00,
2013-03-18 20:39:00,40.8,37.2,29.91,WNW,301,9.0,10.0,87,0.00,,,1.28,Wunderground v.1.15,2013-03-19 01:39:00,
2013-03-18 20:44:00,40.5,37.2,29.93,NW,309,8.0,10.0,88,0.00,,,1.28,Wunderground v.1.15,2013-03-19 01:44:00,
2013-03-18 20:49:00,40.3,37.3,29.92,NW,305,9.0,10.0,89,0.00,,,1.28,Wunderground v.1.15,2013-03-19 01:49:00,
2013-03-18 20:54:00,40.1,37.1,29.92,NW,306,7.0,10.0,89,0.00,,,1.28,Wunderground v.1.15,2013-03-19 01:54:00,
2013-03-18 20:59:00,40.0,37.3,29.93,WNW,292,7.0,10.0,90,0.00,,,1.28,Wunderground v.1.15,2013-03-19 01:59:00,
2013-03-18 21:04:00,39.8,37.1,29.93,WNW,295,6.0,9.0,90,0.00,,,1.28,Wunderground v.1.15,2013-03-19 02:04:00,
2013-03-18 21:09:00,39.6,36.9,29.93,WNW,294,7.0,9.0,90,0.00,,,1.28,Wunderground v.1.15,2013-03-19 02:09:00,
2013-03-18 21:14:00,39.4,36.7,29.94,WNW,288,7.0,9.0,90,0.00,,,1.28,Wunderground v.1.15,2013-03-19 02:14:00,
2013-03-18 21:19:00,39.2,36.5,29.94,WNW,288,6.0,9.0,90,0.00,,,1.28,Wunderground v.1.15,2013-03-19 02:19:00,
2013-03-18 21:24:00,39.0,36.6,29.94,WNW,284,6.0,7.0,91,0.00,,,1.28,Wunderground v.1.15,2013-03-19 02:24:00,
2013-03-18 21:29:00,38.9,36.5,29.94,WNW,284,6.0,7.0,91,0.00,,,1.28,Wunderground v.1.15,2013-03-19 02:29:00,
2013-03-18 21:34:00,38.9,36.5,29.95,WNW,284,6.0,7.0,91,0.00,,,1.28,Wunderground v.1.15,2013-03-19 02:34:00,
2013-03-18 21:39:00,38.9,36.8,29.94,West,279,6.0,7.0,92,0.00,,,1.28,Wunderground v.1.15,2013-03-19 02:39:00,
2013-03-18 21:44:00,38.8,36.4,29.94,West,269,6.0,7.0,91,0.00,,,1.28,Wunderground v.1.15,2013-03-19 02:44:00,
2013-03-18 21:49:00,38.8,36.4,29.95,West,261,5.0,7.0,91,0.00,,,1.28,Wunderground v.1.15,2013-03-19 02:49:00,
2013-03-18 21:54:00,38.7,36.3,29.94,West,279,6.0,6.0,91,0.00,,,1.28,Wunderground v.1.15,2013-03-19 02:54:00,
2013-03-18 21:59:00,38.5,36.1,29.94,West,279,6.0,7.0,91,0.00,,,1.28,Wunderground v.1.15,2013-03-19 02:59:00,
2013-03-18 22:04:00,38.4,36.0,29.95,WSW,257,6.0,7.0,91,0.00,,,1.28,Wunderground v.1.15,2013-03-19 03:04:00,
2013-03-18 22:09:00,38.3,36.2,29.95,West,279,5.0,7.0,92,0.00,,,1.28,Wunderground v.1.15,2013-03-19 03:09:00,
2013-03-18 22:14:00,38.5,36.4,29.95,West,279,6.0,7.0,92,0.00,,,1.28,Wunderground v.1.15,2013-03-19 03:14:00,
2013-03-18 22:19:00,38.4,36.3,29.95,WSW,240,6.0,7.0,92,0.00,,,1.28,Wunderground v.1.15,2013-03-19 03:19:00,
2013-03-18 22:24:00,38.6,36.5,29.96,WSW,238,6.0,7.0,92,0.00,,,1.28,Wunderground v.1.15,2013-03-19 03:24:00,
2013-03-18 22:29:00,38.8,36.7,29.95,WSW,238,7.0,7.0,92,0.00,,,1.28,Wunderground v.1.15,2013-03-19 03:29:00,
2013-03-18 22:34:00,39.1,36.7,29.95,SW,228,6.0,7.0,91,0.00,,,1.28,Wunderground v.1.15,2013-03-19 03:34:00,
2013-03-18 22:39:00,39.3,36.9,29.96,West,279,7.0,7.0,91,0.00,,,1.28,Wunderground v.1.15,2013-03-19 03:39:00,
2013-03-18 22:44:00,39.5,37.1,29.97,West,279,7.0,9.0,91,0.00,,,1.28,Wunderground v.1.15,2013-03-19 03:44:00,
2013-03-18 22:49:00,39.8,37.1,29.95,SW,220,8.0,9.0,90,0.00,,,1.28,Wunderground v.1.15,2013-03-19 03:49:00,
2013-03-18 22:54:00,40.1,37.1,29.96,SW,217,7.0,8.0,89,0.00,,,1.28,Wunderground v.1.15,2013-03-19 03:54:00,
2013-03-18 22:59:00,40.1,37.1,29.96,SSW,210,7.0,9.0,89,0.00,,,1.28,Wunderground v.1.15,2013-03-19 03:59:00,
2013-03-18 23:00:00,40.1,37.1,29.96,SSW,209,8.0,8.0,89,0.00,,,1.28,Wunderground v.1.15,2013-03-19 04:00:00,
2013-03-18 23:01:00,40.1,37.1,29.95,SSW,208,7.0,8.0,89,0.00,,,1.28,Wunderground v.1.15,2013-03-19 04:01:00,
2013-03-18 23:06:00,40.0,37.0,29.96,SSW,198,9.0,9.0,89,0.00,,,1.28,Wunderground v.1.15,2013-03-19 04:06:00,
2013-03-18 23:11:00,39.8,36.8,29.96,West,279,9.0,10.0,89,0.00,,,1.28,Wunderground v.1.15,2013-03-19 04:11:00,
2013-03-18 23:16:00,39.6,36.9,29.98,SSW,197,10.0,11.0,90,0.00,,,1.28,Wunderground v.1.15,2013-03-19 04:16:00,
2013-03-18 23:22:00,39.4,36.7,29.97,SSW,200,11.0,12.0,90,0.00,,,1.28,Wunderground v.1.15,2013-03-19 04:22:00,
2013-03-18 23:26:00,39.4,36.7,29.97,SSW,193,11.0,12.0,90,0.00,,,1.28,Wunderground v.1.15,2013-03-19 04:26:00,
2013-03-18 23:32:00,39.3,36.6,29.97,West,279,12.0,13.0,90,0.00,,,1.28,Wunderground v.1.15,2013-03-19 04:32:00,
2013-03-18 23:37:00,39.5,37.1,29.98,South,190,14.0,14.0,91,0.00,,,1.28,Wunderground v.1.15,2013-03-19 04:37:00,
2013-03-18 23:42:00,39.8,37.1,29.98,SSW,193,13.0,14.0,90,0.00,,,1.28,Wunderground v.1.15,2013-03-19 04:42:00,
2013-03-18 23:47:00,39.9,37.2,29.98,SSW,198,15.0,15.0,90,0.00,,,1.28,Wunderground v.1.15,2013-03-19 04:47:00,
2013-03-18 23:52:00,40.0,37.0,29.99,West,279,15.0,16.0,89,0.00,,,1.28,Wunderground v.1.15,2013-03-19 04:52:00,
2013-03-18 23:57:00,40.0,37.0,30.00,SSW,192,15.0,17.0,89,0.00,,,1.28,Wunderground v.1.15,2013-03-19 04:57:00,